Time;durP1;ratioP1;P1;durP2;ratioP2;P2;SDS_P1;SDS_P2;PMS_P1;PMS_P2;Temp;Humidity;BMP_temperature;BMP_pressure;BME280_temperature;BME280_humidity;BME280_pressure;Samples;Min_cycle;Max_cycle;Signal;HPM_P1;HPM_P2
2021/12/22 00:01:04;;;;;;;20.67;9.53;;;-2.10;99.90;;;;;;4350510;33;20251;-68
2021/12/22 00:03:31;;;;;;;19.73;9.73;;;-2.10;99.90;;;;;;4350872;33;20534;-68
2021/12/22 00:05:59;;;;;;;24.87;11.03;;;-2.10;99.90;;;;;;4350230;33;20271;-68
2021/12/22 00:08:27;;;;;;;26.50;10.43;;;-2.20;99.90;;;;;;4350183;33;20187;-68
2021/12/22 00:10:54;;;;;;;21.30;10.00;;;-2.30;99.90;;;;;;4350062;33;20172;-68
2021/12/22 00:13:22;;;;;;;24.23;10.67;;;-2.30;99.90;;;;;;4350934;32;20209;-68
2021/12/22 00:15:49;;;;;;;23.67;10.30;;;-2.40;99.90;;;;;;4349446;33;20248;-68
2021/12/22 00:18:17;;;;;;;22.60;10.00;;;-2.30;99.90;;;;;;4350046;33;20168;-68
2021/12/22 00:20:44;;;;;;;24.97;9.93;;;-2.30;99.90;;;;;;4349517;33;20227;-68
2021/12/22 00:23:14;;;;;;;22.77;9.93;;;-2.20;99.90;;;;;;4350521;33;20212;-68
2021/12/22 00:25:41;;;;;;;20.33;9.97;;;-2.20;99.90;;;;;;4350788;33;20190;-68
2021/12/22 00:28:09;;;;;;;22.93;9.97;;;-2.20;99.90;;;;;;4349178;33;20164;-68
2021/12/22 00:30:38;;;;;;;20.87;10.23;;;-2.20;99.90;;;;;;4350172;33;20186;-68
2021/12/22 00:33:07;;;;;;;20.13;10.00;;;-2.30;99.90;;;;;;4349161;33;20176;-68
2021/12/22 00:35:41;;;;;;;20.70;9.83;;;-2.40;99.90;;;;;;4349371;33;20203;-68
2021/12/22 00:38:11;;;;;;;20.90;8.97;;;-2.40;99.90;;;;;;4349427;33;20238;-68
2021/12/22 00:40:39;;;;;;;20.30;9.50;;;-2.50;99.90;;;;;;4350220;33;20219;-68
2021/12/22 00:43:08;;;;;;;18.57;9.07;;;-2.40;99.90;;;;;;4350293;33;20290;-68
2021/12/22 00:45:39;;;;;;;20.03;9.53;;;-2.40;99.90;;;;;;4349140;33;20223;-68
2021/12/22 00:48:11;;;;;;;21.50;9.47;;;-2.30;99.90;;;;;;4348939;33;20173;-68
2021/12/22 00:50:40;;;;;;;21.07;9.50;;;-2.20;99.90;;;;;;4348812;33;20176;-68
2021/12/22 00:53:11;;;;;;;20.97;9.93;;;-2.20;99.90;;;;;;4348834;33;20200;-68
2021/12/22 00:55:41;;;;;;;20.23;9.57;;;-2.20;99.90;;;;;;4348563;33;20189;-68
2021/12/22 00:58:09;;;;;;;21.33;9.37;;;-2.40;99.90;;;;;;4348423;33;20172;-68
2021/12/22 01:00:37;;;;;;;20.53;9.80;;;-2.30;99.90;;;;;;4349828;33;20153;-68
2021/12/22 01:03:04;;;;;;;21.27;9.83;;;-2.30;99.90;;;;;;4349607;33;20429;-68
2021/12/22 01:05:32;;;;;;;19.23;9.47;;;-2.30;99.90;;;;;;4348469;33;20388;-68
2021/12/22 01:08:00;;;;;;;18.63;9.53;;;-2.30;99.90;;;;;;4348934;33;20169;-68
2021/12/22 01:10:29;;;;;;;21.43;9.30;;;-2.20;99.90;;;;;;4348234;33;20603;-68
2021/12/22 01:12:59;;;;;;;19.67;9.83;;;-2.40;99.90;;;;;;4348027;33;20243;-68
2021/12/22 01:15:27;;;;;;;20.60;10.43;;;-2.50;99.90;;;;;;4348837;33;20188;-68
2021/12/22 01:18:03;;;;;;;23.13;10.67;;;-2.50;99.90;;;;;;4349609;33;20207;-68
2021/12/22 01:20:49;;;;;;;21.63;9.90;;;-2.50;99.90;;;;;;4350091;32;20174;-68
2021/12/22 01:23:19;;;;;;;20.77;9.43;;;-2.60;99.90;;;;;;4348836;33;20168;-68
2021/12/22 01:25:48;;;;;;;19.87;9.57;;;-2.50;99.90;;;;;;4349766;33;20408;-68
2021/12/22 01:28:22;;;;;;;17.17;9.20;;;-2.50;99.90;;;;;;4349767;33;20207;-68
2021/12/22 01:30:50;;;;;;;23.63;9.53;;;-2.40;99.90;;;;;;4348432;33;20168;-68
2021/12/22 01:33:18;;;;;;;22.33;10.13;;;-2.40;99.90;;;;;;4349931;33;20128;-68
2021/12/22 01:35:47;;;;;;;23.70;9.80;;;-2.40;99.90;;;;;;4347380;33;20180;-68
2021/12/22 01:38:15;;;;;;;20.70;10.37;;;-2.50;99.90;;;;;;4348346;33;20169;-68
2021/12/22 01:40:44;;;;;;;18.37;9.80;;;-2.50;99.90;;;;;;4347983;33;20183;-68
2021/12/22 01:43:14;;;;;;;19.13;10.00;;;-2.50;99.90;;;;;;4347871;33;20179;-68
2021/12/22 01:49:11;;;;;;;19.67;10.03;;;-2.70;99.90;;;;;;4335434;33;20184;-72
2021/12/22 01:51:38;;;;;;;20.23;9.87;;;-2.60;99.90;;;;;;4346722;33;20236;-68
2021/12/22 01:54:31;;;;;;;19.43;9.70;;;-2.50;99.90;;;;;;4347421;33;20136;-68
2021/12/22 01:57:01;;;;;;;20.10;9.80;;;-2.50;99.90;;;;;;4277257;33;20535;-68
2021/12/22 01:59:29;;;;;;;19.70;10.13;;;-2.50;99.90;;;;;;4288634;33;20196;-67
2021/12/22 02:01:57;;;;;;;21.33;10.17;;;-2.60;99.90;;;;;;4277632;33;20248;-68
2021/12/22 02:04:24;;;;;;;19.50;10.00;;;-2.80;99.90;;;;;;4277828;33;20237;-68
2021/12/22 02:06:52;;;;;;;20.70;10.40;;;-2.80;99.90;;;;;;4276537;33;20169;-68
2021/12/22 02:09:40;;;;;;;19.67;10.17;;;-2.70;99.90;;;;;;4276539;33;20163;-68
2021/12/22 02:12:10;;;;;;;21.93;10.57;;;-2.70;99.90;;;;;;4276841;33;20175;-68
2021/12/22 02:14:40;;;;;;;19.33;9.40;;;-2.70;99.90;;;;;;4275892;33;20170;-68
2021/12/22 02:17:09;;;;;;;19.50;9.60;;;-2.70;99.90;;;;;;4289022;33;20142;-68
2021/12/22 02:19:39;;;;;;;19.17;10.40;;;-2.70;99.90;;;;;;4276636;33;20173;-68
2021/12/22 02:22:14;;;;;;;20.23;10.17;;;-2.60;99.90;;;;;;4288197;33;20192;-68
2021/12/22 02:24:56;;;;;;;21.23;10.07;;;-2.70;99.90;;;;;;4288590;33;20164;-68
2021/12/22 02:27:33;;;;;;;19.70;9.63;;;-2.80;99.90;;;;;;4288284;33;20178;-68
2021/12/22 02:30:02;;;;;;;20.83;9.83;;;-2.80;99.90;;;;;;4276216;33;20170;-68
2021/12/22 02:35:05;;;;;;;19.13;9.37;;;-2.70;99.90;;;;;;4340840;33;20414;-68
2021/12/22 02:37:42;;;;;;;21.90;10.80;;;-2.60;99.90;;;;;;4349066;33;20148;-68
2021/12/22 02:40:14;;;;;;;20.80;10.70;;;-2.60;99.90;;;;;;4347581;33;20172;-68
2021/12/22 02:42:44;;;;;;;19.10;9.53;;;-2.50;99.90;;;;;;4347126;33;20180;-68
2021/12/22 02:45:17;;;;;;;19.37;9.80;;;-2.60;99.90;;;;;;4348377;33;20278;-68
2021/12/22 02:47:45;;;;;;;21.17;10.60;;;-2.60;99.90;;;;;;4347220;33;20208;-68
2021/12/22 02:50:15;;;;;;;20.20;9.90;;;-2.70;99.90;;;;;;4347850;33;20168;-68
2021/12/22 02:53:04;;;;;;;21.53;10.20;;;-2.70;99.90;;;;;;4347866;33;20191;-68
2021/12/22 02:55:59;;;;;;;21.73;10.37;;;-2.70;99.90;;;;;;4348807;33;20250;-68
2021/12/22 02:58:40;;;;;;;22.93;10.47;;;-2.70;99.90;;;;;;4347356;33;20169;-68
2021/12/22 03:03:59;;;;;;;18.57;9.93;;;-2.60;99.90;;;;;;4348613;33;20283;-68
2021/12/22 03:06:36;;;;;;;20.70;10.37;;;-2.60;99.90;;;;;;4348561;33;20160;-68
2021/12/22 03:09:28;;;;;;;21.43;10.37;;;-2.70;99.90;;;;;;4348237;33;20172;-68
2021/12/22 03:11:59;;;;;;;21.83;10.10;;;-2.70;99.90;;;;;;4348399;33;20176;-68
2021/12/22 03:14:28;;;;;;;21.40;10.20;;;-2.60;99.90;;;;;;4348444;33;20133;-68
2021/12/22 03:16:56;;;;;;;20.70;10.20;;;-2.60;99.90;;;;;;4347736;33;20187;-68
2021/12/22 03:19:30;;;;;;;21.80;10.30;;;-2.70;99.90;;;;;;4347217;33;20172;-68
2021/12/22 03:22:02;;;;;;;19.97;10.00;;;-2.70;99.90;;;;;;4348376;33;20195;-68
2021/12/22 03:24:32;;;;;;;21.10;10.87;;;-2.70;99.90;;;;;;4347555;33;20247;-68
2021/12/22 03:27:02;;;;;;;22.77;10.63;;;-2.60;99.90;;;;;;4346839;33;20211;-68
2021/12/22 03:29:35;;;;;;;21.30;10.23;;;-2.60;99.90;;;;;;4348483;33;20149;-68
2021/12/22 03:32:03;;;;;;;20.13;10.40;;;-2.50;99.90;;;;;;4348249;33;20164;-68
2021/12/22 03:34:31;;;;;;;20.13;10.43;;;-2.50;99.90;;;;;;4348174;33;20227;-68
2021/12/22 03:36:58;;;;;;;17.97;9.60;;;-2.40;99.90;;;;;;4346886;33;20381;-68
2021/12/22 03:39:27;;;;;;;24.63;10.73;;;-2.60;99.90;;;;;;4347504;33;20218;-68
2021/12/22 03:41:55;;;;;;;21.33;10.47;;;-2.60;99.90;;;;;;4346896;33;20175;-68
2021/12/22 03:44:22;;;;;;;20.90;10.60;;;-2.70;99.90;;;;;;4346418;33;20192;-68
2021/12/22 03:46:51;;;;;;;21.17;11.17;;;-2.70;99.90;;;;;;4346961;33;20210;-68
2021/12/22 03:49:19;;;;;;;22.20;10.67;;;-2.70;99.90;;;;;;4346925;33;20284;-68
2021/12/22 03:51:46;;;;;;;20.17;10.53;;;-2.60;99.90;;;;;;4347167;33;20387;-68
2021/12/22 03:54:19;;;;;;;22.83;10.67;;;-2.60;99.90;;;;;;4348723;33;20155;-68
2021/12/22 03:56:49;;;;;;;20.27;10.53;;;-2.60;99.90;;;;;;4346909;33;20222;-68
2021/12/22 03:59:17;;;;;;;21.33;10.57;;;-2.70;99.90;;;;;;4348955;33;20252;-68
2021/12/22 04:01:46;;;;;;;20.13;10.60;;;-2.80;99.90;;;;;;4349678;33;20187;-68
2021/12/22 04:04:17;;;;;;;22.00;10.17;;;-2.80;99.90;;;;;;4350708;33;20169;-68
2021/12/22 04:06:45;;;;;;;18.67;10.17;;;-2.70;99.90;;;;;;4349682;33;20194;-68
2021/12/22 04:09:15;;;;;;;20.73;10.70;;;-2.80;99.90;;;;;;4350192;33;20184;-68
2021/12/22 04:11:43;;;;;;;18.97;10.20;;;-2.70;99.90;;;;;;4352274;33;20493;-68
2021/12/22 04:14:12;;;;;;;20.87;10.67;;;-2.70;99.90;;;;;;4349343;33;20187;-69
2021/12/22 04:16:39;;;;;;;23.50;11.00;;;-2.70;99.90;;;;;;4349463;33;20168;-68
2021/12/22 04:19:06;;;;;;;21.50;10.43;;;-2.80;99.90;;;;;;4350127;33;20271;-68
2021/12/22 04:21:34;;;;;;;20.43;10.30;;;-2.80;99.90;;;;;;4351867;33;20141;-68
2021/12/22 04:24:02;;;;;;;23.07;10.57;;;-2.90;99.90;;;;;;4350362;33;20206;-68
2021/12/22 04:26:32;;;;;;;22.63;11.10;;;-2.80;99.90;;;;;;4350546;33;20193;-68
2021/12/22 04:28:59;;;;;;;22.27;10.10;;;-2.90;99.90;;;;;;4349559;33;20210;-68
2021/12/22 04:31:27;;;;;;;20.53;10.10;;;-3.00;99.90;;;;;;4349485;33;20466;-68
2021/12/22 04:33:54;;;;;;;22.73;10.60;;;-2.90;99.90;;;;;;4350001;33;20180;-68
2021/12/22 04:36:22;;;;;;;19.87;10.60;;;-2.80;99.90;;;;;;4351555;33;20132;-68
2021/12/22 04:38:49;;;;;;;22.33;10.60;;;-2.80;99.90;;;;;;4349943;33;20242;-68
2021/12/22 04:41:17;;;;;;;20.80;9.87;;;-2.80;99.90;;;;;;4349770;33;20199;-68
2021/12/22 04:43:44;;;;;;;22.03;10.00;;;-2.80;99.90;;;;;;4348800;33;20193;-68
2021/12/22 04:46:11;;;;;;;18.07;9.60;;;-2.80;99.90;;;;;;4349334;33;20263;-68
2021/12/22 04:48:39;;;;;;;19.83;10.03;;;-2.80;99.90;;;;;;4351646;33;20140;-68
2021/12/22 04:51:13;;;;;;;19.60;9.90;;;-2.80;99.90;;;;;;4349102;33;20204;-68
2021/12/22 04:53:53;;;;;;;18.27;9.37;;;-2.80;99.90;;;;;;4349007;33;20160;-69
2021/12/22 04:56:20;;;;;;;20.90;9.60;;;-2.80;99.90;;;;;;4350190;33;20166;-68
2021/12/22 04:58:47;;;;;;;20.03;9.70;;;-2.80;99.90;;;;;;4350117;33;20150;-68
2021/12/22 05:01:14;;;;;;;18.03;8.80;;;-2.80;99.90;;;;;;4349720;33;20201;-68
2021/12/22 05:03:42;;;;;;;19.80;9.57;;;-2.90;99.90;;;;;;4351273;33;20204;-68
2021/12/22 05:06:10;;;;;;;17.77;9.50;;;-2.90;99.90;;;;;;4348881;33;20171;-68
2021/12/22 05:08:37;;;;;;;19.87;10.00;;;-3.00;99.90;;;;;;4349377;33;20161;-68
2021/12/22 05:11:05;;;;;;;16.87;9.53;;;-3.10;99.90;;;;;;4350078;33;20168;-68
2021/12/22 05:13:35;;;;;;;23.10;10.30;;;-3.10;99.90;;;;;;4349475;33;20191;-68
2021/12/22 05:16:04;;;;;;;19.73;10.20;;;-3.10;99.90;;;;;;4348549;33;20510;-67
2021/12/22 05:18:54;;;;;;;20.87;10.77;;;-3.10;99.90;;;;;;4349132;33;20191;-68
2021/12/22 05:21:24;;;;;;;19.83;10.07;;;-3.20;99.90;;;;;;4350188;33;20194;-68
2021/12/22 05:23:55;;;;;;;20.50;10.37;;;-3.20;99.90;;;;;;4349432;33;20169;-68
2021/12/22 05:26:25;;;;;;;21.17;10.63;;;-3.10;99.90;;;;;;4349046;33;20180;-68
2021/12/22 05:28:54;;;;;;;23.40;10.90;;;-3.10;99.90;;;;;;4350023;33;20400;-68
2021/12/22 05:31:26;;;;;;;21.47;11.13;;;-3.00;99.90;;;;;;4349660;33;20264;-68
2021/12/22 05:33:54;;;;;;;22.90;11.70;;;-3.10;99.90;;;;;;4349027;33;20185;-68
2021/12/22 05:36:21;;;;;;;21.40;10.87;;;-3.10;99.90;;;;;;4348493;33;20282;-68
2021/12/22 05:38:48;;;;;;;22.07;10.47;;;-3.10;99.90;;;;;;4348491;33;20247;-68
2021/12/22 05:41:15;;;;;;;23.47;11.20;;;-3.10;99.90;;;;;;4350093;33;20149;-68
2021/12/22 05:43:43;;;;;;;21.30;11.30;;;-3.10;99.90;;;;;;4349159;33;20184;-68
2021/12/22 05:46:11;;;;;;;21.93;11.40;;;-3.00;99.90;;;;;;4349897;33;20414;-68
2021/12/22 05:48:38;;;;;;;25.83;12.03;;;-3.00;99.90;;;;;;4349155;32;20208;-68
2021/12/22 05:51:06;;;;;;;21.90;11.13;;;-3.10;99.90;;;;;;4348128;33;20235;-68
2021/12/22 05:53:34;;;;;;;20.90;11.23;;;-3.10;99.90;;;;;;4349677;32;20426;-68
2021/12/22 05:56:01;;;;;;;25.27;11.73;;;-3.00;99.90;;;;;;4347731;33;20306;-68
2021/12/22 05:58:28;;;;;;;24.27;12.17;;;-3.00;99.90;;;;;;4349206;33;20609;-68
2021/12/22 06:00:56;;;;;;;24.17;11.60;;;-3.00;99.90;;;;;;4349358;33;20524;-68
2021/12/22 06:03:24;;;;;;;22.20;11.67;;;-3.00;99.90;;;;;;4350448;32;20132;-68
2021/12/22 06:05:51;;;;;;;20.83;11.17;;;-3.00;99.90;;;;;;4347855;33;20596;-68
2021/12/22 06:08:18;;;;;;;19.63;10.33;;;-3.10;99.90;;;;;;4349415;32;20534;-68
2021/12/22 06:10:46;;;;;;;21.23;10.93;;;-3.10;99.90;;;;;;4349637;33;20397;-68
2021/12/22 06:13:13;;;;;;;22.40;10.87;;;-3.00;99.90;;;;;;4347479;33;20572;-68
2021/12/22 06:15:41;;;;;;;21.90;10.93;;;-2.90;99.90;;;;;;4347813;33;20388;-68
2021/12/22 06:18:08;;;;;;;22.57;11.13;;;-2.80;99.90;;;;;;4347439;33;20222;-68
2021/12/22 06:20:36;;;;;;;21.47;11.37;;;-2.70;99.90;;;;;;4347721;33;20187;-68
2021/12/22 06:23:03;;;;;;;22.87;12.10;;;-2.90;99.90;;;;;;4346647;33;20596;-68
2021/12/22 06:25:35;;;;;;;21.13;11.70;;;-2.90;99.90;;;;;;4348125;33;20283;-68
2021/12/22 06:28:03;;;;;;;26.00;12.13;;;-2.70;99.90;;;;;;4348790;33;20427;-68
2021/12/22 06:30:31;;;;;;;22.90;11.83;;;-2.80;99.90;;;;;;4348208;33;20496;-68
2021/12/22 06:32:58;;;;;;;24.53;12.43;;;-2.90;99.90;;;;;;4347244;33;20275;-68
2021/12/22 06:35:26;;;;;;;25.73;12.27;;;-2.80;99.90;;;;;;4349707;33;20132;-68
2021/12/22 06:37:53;;;;;;;28.00;12.73;;;-3.00;99.90;;;;;;4348807;32;20462;-68
2021/12/22 06:40:20;;;;;;;23.60;11.43;;;-3.00;99.90;;;;;;4348695;33;20451;-68
2021/12/22 06:42:48;;;;;;;22.07;12.47;;;-3.00;99.90;;;;;;4347938;33;20223;-68
2021/12/22 06:45:15;;;;;;;25.73;12.10;;;-2.80;99.90;;;;;;4349355;33;20431;-68
2021/12/22 06:47:43;;;;;;;23.47;12.10;;;-2.70;99.90;;;;;;4347408;33;20260;-68
2021/12/22 06:50:10;;;;;;;22.80;11.13;;;-2.60;99.90;;;;;;4347118;33;20549;-68
2021/12/22 06:52:37;;;;;;;22.67;11.27;;;-2.60;99.90;;;;;;4348021;33;20201;-68
2021/12/22 06:55:05;;;;;;;23.67;11.80;;;-2.60;99.90;;;;;;4346981;33;20574;-68
2021/12/22 06:57:34;;;;;;;24.33;11.40;;;-2.60;99.90;;;;;;4348436;33;20527;-68
2021/12/22 07:00:04;;;;;;;23.30;12.20;;;-2.50;99.90;;;;;;4347381;33;21028;-68
2021/12/22 07:02:35;;;;;;;22.90;11.63;;;-2.50;99.90;;;;;;4347015;33;20526;-68
2021/12/22 07:05:08;;;;;;;27.07;12.73;;;-2.50;99.90;;;;;;4348176;33;20589;-68
2021/12/22 07:07:36;;;;;;;25.97;12.13;;;-2.50;99.90;;;;;;4349090;33;20330;-68
2021/12/22 07:10:07;;;;;;;28.23;13.00;;;-2.40;99.90;;;;;;4347965;33;20172;-68
2021/12/22 07:12:36;;;;;;;23.30;11.90;;;-2.30;99.90;;;;;;4346503;33;20180;-68
2021/12/22 07:15:04;;;;;;;24.20;12.23;;;-2.30;99.90;;;;;;4346918;33;20211;-68
2021/12/22 07:17:31;;;;;;;26.63;13.37;;;-2.40;99.90;;;;;;4348737;33;20137;-68
2021/12/22 07:19:59;;;;;;;25.80;12.47;;;-2.40;99.90;;;;;;4347359;33;20272;-68
2021/12/22 07:22:29;;;;;;;29.27;13.33;;;-2.40;99.90;;;;;;4347029;33;20510;-68
2021/12/22 07:24:56;;;;;;;26.93;13.23;;;-2.40;99.90;;;;;;4346918;33;20255;-68
2021/12/22 07:27:26;;;;;;;23.37;12.23;;;-2.40;99.90;;;;;;4347657;33;20168;-68
2021/12/22 07:30:00;;;;;;;26.73;12.90;;;-2.40;99.90;;;;;;4346508;33;20187;-68
2021/12/22 07:32:33;;;;;;;27.80;13.17;;;-2.60;99.90;;;;;;4346415;33;20182;-68
2021/12/22 07:35:32;;;;;;;28.53;13.00;;;-2.50;99.90;;;;;;4347292;33;20255;-68
2021/12/22 07:38:26;;;;;;;29.47;13.63;;;-2.50;99.90;;;;;;4351132;33;20180;-68
2021/12/22 07:41:14;;;;;;;25.77;12.43;;;-2.40;99.90;;;;;;4350218;32;20187;-68
2021/12/22 07:43:47;;;;;;;27.33;13.43;;;-2.40;99.90;;;;;;4348317;33;20179;-68
2021/12/22 07:46:21;;;;;;;24.33;12.53;;;-2.40;99.90;;;;;;4349947;33;20175;-68
2021/12/22 07:49:08;;;;;;;31.23;13.73;;;-2.40;99.90;;;;;;4349596;33;20254;-68
2021/12/22 07:51:39;;;;;;;28.27;13.33;;;-2.40;99.90;;;;;;4349873;33;20198;-68
2021/12/22 07:54:12;;;;;;;27.40;12.63;;;-2.40;99.90;;;;;;4350725;33;20390;-68
2021/12/22 07:56:43;;;;;;;29.37;13.93;;;-2.40;99.90;;;;;;4349428;33;20261;-68
2021/12/22 07:59:16;;;;;;;26.30;12.93;;;-2.30;99.90;;;;;;4349431;33;20168;-68
2021/12/22 08:01:46;;;;;;;28.13;13.23;;;-2.30;99.90;;;;;;4349159;33;20479;-68
2021/12/22 08:04:36;;;;;;;29.07;13.60;;;-2.20;99.90;;;;;;4349062;33;20240;-68
2021/12/22 08:07:09;;;;;;;27.20;13.77;;;-2.20;99.90;;;;;;4349017;32;20249;-69
2021/12/22 08:10:04;;;;;;;27.90;13.70;;;-2.20;99.90;;;;;;4349829;33;20265;-68
2021/12/22 08:12:57;;;;;;;26.07;13.87;;;-2.10;99.90;;;;;;4348541;33;20180;-68
2021/12/22 08:15:25;;;;;;;29.33;14.40;;;-2.10;99.90;;;;;;4349181;33;20164;-68
2021/12/22 08:18:13;;;;;;;;;;;;;;;;;;;;;
2021/12/22 08:20:50;;;;;;;29.20;13.30;;;-2.10;99.90;;;;;;4349333;33;20523;-68
2021/12/22 08:23:20;;;;;;;31.67;14.33;;;-2.10;99.90;;;;;;4348690;33;20230;-68
2021/12/22 08:25:49;;;;;;;29.87;13.93;;;-2.00;99.90;;;;;;4348903;33;20207;-68
2021/12/22 08:28:25;;;;;;;27.87;13.77;;;-2.10;99.90;;;;;;4350354;32;20218;-68
2021/12/22 08:30:56;;;;;;;28.50;14.00;;;-2.00;99.90;;;;;;4349101;33;20262;-69
2021/12/22 08:33:29;;;;;;;34.77;14.60;;;-1.90;99.90;;;;;;4350114;32;20179;-68
2021/12/22 08:38:55;;;;;;;33.03;14.17;;;-2.00;99.90;;;;;;4348852;33;20239;-68
2021/12/22 08:41:29;;;;;;;28.37;14.00;;;-2.00;99.90;;;;;;4348927;33;20178;-68
2021/12/22 08:44:00;;;;;;;28.13;13.43;;;-2.00;99.90;;;;;;4348135;33;20173;-68
2021/12/22 08:46:29;;;;;;;29.67;14.30;;;-2.00;99.90;;;;;;4348311;33;20187;-68
2021/12/22 08:48:57;;;;;;;31.23;13.70;;;-2.10;99.90;;;;;;4348945;33;20164;-68
2021/12/22 08:51:28;;;;;;;29.80;13.33;;;-2.00;99.90;;;;;;4349095;33;20168;-68
2021/12/22 08:54:00;;;;;;;34.73;14.43;;;-2.00;99.90;;;;;;4348679;33;20195;-68
2021/12/22 08:56:29;;;;;;;31.80;14.47;;;-2.00;99.90;;;;;;4349852;32;20483;-68
2021/12/22 08:59:11;;;;;;;30.97;14.10;;;-2.00;99.90;;;;;;4349080;33;20164;-68
2021/12/22 09:01:40;;;;;;;34.63;15.37;;;-1.90;99.90;;;;;;4348018;33;20299;-69
2021/12/22 09:04:09;;;;;;;34.50;15.33;;;-1.90;99.90;;;;;;4348133;33;20161;-68
2021/12/22 09:06:37;;;;;;;38.57;17.17;;;-2.10;99.90;;;;;;4348226;33;20168;-68
2021/12/22 09:09:09;;;;;;;42.50;19.63;;;-2.10;99.90;;;;;;4348733;33;20202;-68
2021/12/22 09:11:40;;;;;;;42.43;18.73;;;-2.10;99.90;;;;;;4347909;33;20191;-68
2021/12/22 09:14:10;;;;;;;35.37;17.40;;;-2.20;99.90;;;;;;4349711;32;20214;-68
2021/12/22 09:16:44;;;;;;;43.90;18.50;;;-2.20;99.90;;;;;;4349658;33;20148;-68
2021/12/22 09:19:15;;;;;;;38.53;18.70;;;-2.20;99.90;;;;;;4348253;33;20155;-68
2021/12/22 09:21:48;;;;;;;44.60;19.10;;;-2.30;99.90;;;;;;4348401;33;20188;-68
2021/12/22 09:24:19;;;;;;;42.73;17.80;;;-2.30;99.90;;;;;;4348240;33;20172;-68
2021/12/22 09:26:47;;;;;;;42.57;17.50;;;-2.40;99.90;;;;;;4348356;33;20172;-68
2021/12/22 09:29:18;;;;;;;40.10;18.70;;;-2.40;99.90;;;;;;4347822;33;20216;-68
2021/12/22 09:31:51;;;;;;;37.10;17.63;;;-2.40;99.90;;;;;;4348195;33;20199;-68
2021/12/22 09:34:25;;;;;;;38.13;17.67;;;-2.40;99.90;;;;;;4347600;33;20172;-68
2021/12/22 09:37:28;;;;;;;42.00;18.97;;;-2.40;99.90;;;;;;4348388;33;20180;-68
2021/12/22 09:39:57;;;;;;;39.17;18.47;;;-2.40;99.90;;;;;;4334911;33;20419;-68
2021/12/22 09:42:24;;;;;;;39.97;18.70;;;-2.30;99.90;;;;;;4346697;33;20194;-68
2021/12/22 09:44:52;;;;;;;39.20;18.30;;;-2.30;99.90;;;;;;4346572;33;20457;-68
2021/12/22 09:47:48;;;;;;;41.00;18.10;;;-2.30;99.90;;;;;;4334513;33;20164;-68
2021/12/22 09:50:36;;;;;;;40.20;17.83;;;-2.50;99.90;;;;;;4334516;33;20188;-68
2021/12/22 09:53:15;;;;;;;37.63;17.77;;;-2.50;99.90;;;;;;4334018;33;20196;-68
2021/12/22 09:55:52;;;;;;;44.87;18.97;;;-2.50;99.90;;;;;;4334525;33;20168;-68
2021/12/22 10:02:06;;;;;;;36.97;17.33;;;-2.40;99.90;;;;;;4333105;33;20238;-68
2021/12/22 10:04:53;;;;;;;42.40;18.27;;;-2.30;99.90;;;;;;4334325;33;20398;-69
2021/12/22 10:07:37;;;;;;;41.00;18.43;;;-2.20;99.90;;;;;;4333628;33;20194;-68
2021/12/22 10:10:13;;;;;;;39.60;17.83;;;-2.20;99.90;;;;;;4334824;33;20190;-68
2021/12/22 10:13:06;;;;;;;38.27;17.33;;;-2.30;99.90;;;;;;4333609;33;20314;-68
2021/12/22 10:16:18;;;;;;;34.23;16.93;;;-2.10;99.90;;;;;;4329400;33;20310;-68
2021/12/22 10:19:28;;;;;;;37.53;17.87;;;-2.00;99.90;;;;;;4347532;33;20168;-68
2021/12/22 10:22:00;;;;;;;39.33;17.13;;;-1.90;99.90;;;;;;4334174;33;20243;-68
2021/12/22 10:24:42;;;;;;;35.77;15.57;;;-2.00;99.90;;;;;;4333978;33;20537;-68
2021/12/22 10:27:24;;;;;;;34.77;15.50;;;-2.00;99.90;;;;;;4333945;33;20300;-68
2021/12/22 10:30:17;;;;;;;36.33;15.43;;;-2.00;99.90;;;;;;4333873;33;20165;-68
2021/12/22 10:33:10;;;;;;;33.73;14.27;;;-1.90;99.90;;;;;;4327958;33;20443;-68
2021/12/22 10:35:55;;;;;;;29.77;14.17;;;-1.90;99.90;;;;;;4302013;33;20195;-68
2021/12/22 10:38:31;;;;;;;28.17;13.80;;;-1.80;99.90;;;;;;4289911;33;20199;-68
2021/12/22 10:41:07;;;;;;;31.50;14.10;;;-1.80;99.90;;;;;;4290808;33;20235;-68
2021/12/22 10:43:45;;;;;;;31.27;14.63;;;-1.70;99.90;;;;;;4301439;33;20188;-68
2021/12/22 10:46:32;;;;;;;37.27;16.43;;;-1.70;99.90;;;;;;4291574;33;20161;-68
2021/12/22 10:49:19;;;;;;;36.87;17.23;;;-1.80;99.90;;;;;;4289584;33;20238;-69
2021/12/22 10:52:04;;;;;;;40.10;18.90;;;-1.80;99.90;;;;;;4290374;33;20161;-68
2021/12/22 10:54:37;;;;;;;38.57;18.57;;;-1.80;99.90;;;;;;4289643;33;20267;-68
2021/12/22 10:57:10;;;;;;;42.97;20.23;;;-1.80;99.90;;;;;;4301633;33;20231;-68
2021/12/22 10:59:45;;;;;;;40.77;19.13;;;-1.90;99.90;;;;;;4317182;33;20146;-69
2021/12/22 11:02:26;;;;;;;41.77;20.40;;;-2.00;99.90;;;;;;4303487;33;20193;-68
2021/12/22 11:04:53;;;;;;;37.90;19.97;;;-2.00;99.90;;;;;;4304598;33;20189;-68
2021/12/22 11:07:29;;;;;;;41.33;19.30;;;-2.10;99.90;;;;;;4303920;33;20172;-68
2021/12/22 11:10:25;;;;;;;44.03;20.63;;;-2.30;99.90;;;;;;4303858;33;20258;-69
2021/12/22 11:13:05;;;;;;;49.73;21.27;;;-2.20;99.90;;;;;;4327669;33;20259;-68
2021/12/22 11:15:46;;;;;;;48.47;20.87;;;-2.10;99.90;;;;;;4348342;33;20140;-68
2021/12/22 11:18:30;;;;;;;44.03;20.63;;;-2.20;99.90;;;;;;4348390;33;20125;-68
2021/12/22 11:21:12;;;;;;;49.43;20.23;;;-2.10;99.90;;;;;;4347163;33;20175;-68
2021/12/22 11:23:40;;;;;;;44.37;20.67;;;-2.00;99.90;;;;;;4346133;33;20172;-68
2021/12/22 11:26:08;;;;;;;42.57;21.03;;;-1.90;99.90;;;;;;4346546;33;20180;-68
2021/12/22 11:28:47;;;;;;;42.67;20.53;;;-1.80;99.90;;;;;;4347476;33;20160;-68
2021/12/22 11:31:14;;;;;;;42.17;20.10;;;-1.80;99.90;;;;;;4346730;33;20165;-68
2021/12/22 11:33:46;;;;;;;43.03;19.93;;;-1.80;99.90;;;;;;4346830;33;20168;-68
2021/12/22 11:36:14;;;;;;;42.67;19.47;;;-1.90;99.90;;;;;;4346624;33;20162;-68
2021/12/22 11:38:42;;;;;;;37.90;18.17;;;-1.80;99.90;;;;;;4347190;33;20173;-68
2021/12/22 11:41:18;;;;;;;38.17;17.67;;;-1.90;99.90;;;;;;4346824;33;20190;-68
2021/12/22 11:43:49;;;;;;;35.60;16.47;;;-2.10;99.90;;;;;;4347215;33;20474;-68
2021/12/22 11:46:30;;;;;;;39.00;17.87;;;-2.00;99.90;;;;;;4346916;33;20183;-68
2021/12/22 11:49:06;;;;;;;45.20;19.40;;;-2.10;99.90;;;;;;4347163;33;20252;-68
2021/12/22 11:51:37;;;;;;;39.53;18.13;;;-2.10;99.90;;;;;;4346695;33;20214;-68
2021/12/22 11:54:10;;;;;;;39.57;18.13;;;-2.20;99.90;;;;;;4346885;33;20219;-68
2021/12/22 11:56:49;;;;;;;39.53;18.50;;;-2.10;99.90;;;;;;4347497;33;20176;-68
2021/12/22 11:59:43;;;;;;;41.93;18.77;;;-2.10;99.90;;;;;;4346045;33;20278;-68
2021/12/22 12:02:33;;;;;;;38.87;18.40;;;-2.10;99.90;;;;;;4347732;33;20188;-68
2021/12/22 12:05:36;;;;;;;37.47;17.27;;;-2.00;99.90;;;;;;4347911;33;20150;-68
2021/12/22 12:08:25;;;;;;;40.20;18.43;;;-1.90;99.90;;;;;;4348178;33;20129;-68
2021/12/22 12:11:56;;;;;;;42.67;18.57;;;-1.90;99.90;;;;;;4343168;33;20173;-68
2021/12/22 12:15:02;;;;;;;40.77;18.50;;;-2.00;99.90;;;;;;4345829;33;20195;-68
2021/12/22 12:23:35;;;;;;;43.50;20.07;;;-2.20;99.90;;;;;;4348808;33;20201;-68
2021/12/22 12:26:40;;;;;;;42.47;19.67;;;-2.30;99.90;;;;;;4348879;33;20233;-68
2021/12/22 12:29:55;;;;;;;44.70;21.10;;;-2.20;99.90;;;;;;4334190;33;20212;-68
2021/12/22 12:32:41;;;;;;;48.33;22.20;;;-2.30;99.90;;;;;;4321230;33;20225;-68
2021/12/22 12:35:26;;;;;;;48.43;22.67;;;-2.30;99.90;;;;;;4320889;33;20223;-68
2021/12/22 12:38:24;;;;;;;43.50;20.97;;;-2.30;99.90;;;;;;4320951;33;20188;-68
2021/12/22 12:41:25;;;;;;;47.00;21.30;;;-2.20;99.90;;;;;;4321093;33;20164;-68
2021/12/22 12:44:29;;;;;;;48.97;20.77;;;-2.10;99.90;;;;;;4331713;33;20216;-68
2021/12/22 12:47:16;;;;;;;43.97;20.40;;;-2.30;99.90;;;;;;4321327;33;20247;-68
2021/12/22 12:49:58;;;;;;;42.27;19.97;;;-2.30;99.90;;;;;;4321339;33;20172;-68
2021/12/22 12:52:35;;;;;;;46.63;20.83;;;-2.40;99.90;;;;;;4320429;33;20172;-68
2021/12/22 12:55:20;;;;;;;44.27;20.17;;;-2.40;99.90;;;;;;4320615;33;20228;-68
2021/12/22 12:58:30;;;;;;;44.60;19.83;;;-2.40;99.90;;;;;;4333206;33;20157;-68
2021/12/22 13:01:10;;;;;;;41.23;19.30;;;-2.40;99.90;;;;;;4332616;33;20210;-68
2021/12/22 13:03:54;;;;;;;44.93;20.10;;;-2.40;99.90;;;;;;4333303;33;20141;-68
2021/12/22 13:06:47;;;;;;;48.57;20.67;;;-2.40;99.90;;;;;;4337787;33;20173;-68
2021/12/22 13:09:49;;;;;;;43.60;20.70;;;-2.40;99.90;;;;;;4348140;33;20199;-68
2021/12/22 13:18:39;;;;;;;42.53;19.60;;;-2.50;99.90;;;;;;4349731;32;20235;-68
2021/12/22 13:21:38;;;;;;;43.97;20.47;;;-2.40;99.90;;;;;;4350033;33;20164;-68
2021/12/22 13:24:40;;;;;;;45.43;20.07;;;-2.50;99.90;;;;;;4348102;33;20229;-68
2021/12/22 13:27:14;;;;;;;49.47;22.47;;;-2.40;99.90;;;;;;4350896;32;20414;-68
2021/12/22 13:30:22;;;;;;;42.60;20.03;;;-2.40;99.90;;;;;;4347900;33;20249;-68
2021/12/22 13:33:51;;;;;;;44.73;20.63;;;-2.50;99.90;;;;;;4337492;33;20210;-68
2021/12/22 13:37:19;;;;;;;45.90;21.83;;;-2.50;99.90;;;;;;4348503;33;20204;-68